createdAt,value
2022-10-23T00:00:40.205Z,101225.97
2022-10-23T00:03:07.131Z,101217.81
2022-10-23T00:05:33.931Z,101229.16
2022-10-23T00:08:00.948Z,101237.22
2022-10-23T00:10:27.989Z,101235.69
2022-10-23T00:12:54.827Z,101242.75
2022-10-23T00:15:22.385Z,101232.53
2022-10-23T00:17:49.327Z,101239.44
2022-10-23T00:20:16.488Z,101244.97
2022-10-23T00:22:43.371Z,101249.88
2022-10-23T00:25:10.903Z,101253.59
2022-10-23T00:27:37.809Z,101251.13
2022-10-23T00:30:05.129Z,101250.00
2022-10-23T00:34:58.769Z,101257.59
2022-10-23T00:37:25.614Z,101266.31
2022-10-23T00:39:52.611Z,101255.94
2022-10-23T00:42:20.189Z,101252.09
2022-10-23T00:44:46.932Z,101264.03
2022-10-23T00:47:13.989Z,101258.63
2022-10-23T00:49:42.780Z,101262.78
2022-10-23T00:52:10.570Z,101255.63
2022-10-23T00:54:38.729Z,101265.03
2022-10-23T00:57:06.568Z,101261.59
2022-10-23T00:59:33.510Z,101266.69
2022-10-23T01:02:00.769Z,101266.88
2022-10-23T01:04:27.774Z,101270.66
2022-10-23T01:06:59.873Z,101269.97
2022-10-23T01:09:43.150Z,101271.66
2022-10-23T01:12:34.648Z,101267.78
2022-10-23T01:15:10.509Z,101270.00
2022-10-23T01:17:44.726Z,101281.47
2022-10-23T01:20:14.560Z,101275.38
2022-10-23T01:22:56.347Z,101267.50
2022-10-23T01:25:47.971Z,101278.13
2022-10-23T01:28:19.050Z,101281.03
2022-10-23T01:30:45.869Z,101278.97
2022-10-23T01:33:15.208Z,101270.97
2022-10-23T01:35:46.567Z,101265.59
2022-10-23T01:38:16.008Z,101267.09
2022-10-23T01:41:03.134Z,101257.72
2022-10-23T01:43:40.108Z,101270.25
2022-10-23T01:46:09.067Z,101274.97
2022-10-23T01:48:35.906Z,101265.56
2022-10-23T01:51:06.288Z,101274.53
2022-10-23T01:53:34.790Z,101266.94
2022-10-23T01:56:02.449Z,101263.50
2022-10-23T01:58:29.650Z,101269.03
2022-10-23T02:00:57.913Z,101259.63
2022-10-23T02:03:24.788Z,101269.69
2022-10-23T02:05:51.648Z,101270.25
2022-10-23T02:08:18.510Z,101268.31
2022-10-23T02:10:47.591Z,101270.19
2022-10-23T02:13:19.587Z,101255.94
2022-10-23T02:15:51.669Z,101266.28
2022-10-23T02:18:51.992Z,101265.69
2022-10-23T02:21:24.028Z,101271.28
2022-10-23T02:23:56.298Z,101263.66
2022-10-23T02:26:53.129Z,101270.91
2022-10-23T02:29:26.728Z,101272.75
2022-10-23T02:31:53.571Z,101278.06
2022-10-23T02:34:20.427Z,101283.94
2022-10-23T02:36:47.248Z,101280.50
2022-10-23T02:39:14.106Z,101275.13
2022-10-23T02:41:47.017Z,101281.78
2022-10-23T02:44:22.088Z,101283.03
2022-10-23T02:47:21.594Z,101281.13
2022-10-23T02:50:10.127Z,101281.50
2022-10-23T02:53:14.952Z,101266.66
2022-10-23T02:56:06.248Z,101283.81
2022-10-23T02:58:56.710Z,101275.06
2022-10-23T03:01:27.766Z,101268.94
2022-10-23T03:03:57.227Z,101276.69
2022-10-23T03:06:24.293Z,101278.16
2022-10-23T03:09:05.753Z,101275.06
2022-10-23T03:11:32.689Z,101271.03
2022-10-23T03:13:59.570Z,101256.16
2022-10-23T03:16:26.413Z,101274.38
2022-10-23T03:18:53.368Z,101279.13
2022-10-23T03:21:20.231Z,101279.38
2022-10-23T03:23:47.067Z,101287.59
2022-10-23T03:26:13.910Z,101280.31
2022-10-23T03:28:40.772Z,101287.06
2022-10-23T03:31:07.627Z,101290.41
2022-10-23T03:33:34.495Z,101269.81
2022-10-23T03:36:01.314Z,101276.78
2022-10-23T03:38:28.199Z,101270.34
2022-10-23T03:40:55.011Z,101276.00
2022-10-23T03:43:21.852Z,101282.53
2022-10-23T03:45:48.707Z,101282.16
2022-10-23T03:48:15.508Z,101289.50
2022-10-23T03:50:42.330Z,101282.06
2022-10-23T03:53:09.209Z,101286.81
2022-10-23T03:55:36.088Z,101287.13
2022-10-23T03:58:03.253Z,101294.34
2022-10-23T04:00:30.255Z,101288.75
2022-10-23T04:02:57.130Z,101299.66
2022-10-23T04:05:23.989Z,101301.88
2022-10-23T04:07:50.800Z,101308.16
2022-10-23T04:10:17.707Z,101302.75
2022-10-23T04:12:44.855Z,101306.41
2022-10-23T04:15:12.155Z,101303.38
2022-10-23T04:17:38.950Z,101301.34
2022-10-23T04:20:05.933Z,101305.50
2022-10-23T04:22:32.826Z,101300.00
2022-10-23T04:24:59.609Z,101286.75
2022-10-23T04:27:26.429Z,101292.03
2022-10-23T04:29:55.562Z,101305.44
2022-10-23T04:32:25.110Z,101298.25
2022-10-23T04:34:51.967Z,101307.81
2022-10-23T04:37:18.751Z,101303.81
2022-10-23T04:39:45.627Z,101297.47
2022-10-23T04:42:12.495Z,101299.00
2022-10-23T04:44:39.409Z,101298.84
2022-10-23T04:47:06.230Z,101309.22
2022-10-23T04:49:33.109Z,101308.38
2022-10-23T04:51:59.927Z,101308.94
2022-10-23T04:54:26.749Z,101312.41
2022-10-23T04:56:53.575Z,101304.56
2022-10-23T04:59:20.455Z,101306.19
2022-10-23T05:01:47.347Z,101308.13
2022-10-23T05:04:14.311Z,101301.38
2022-10-23T05:06:41.188Z,101304.25
2022-10-23T05:09:08.047Z,101306.16
2022-10-23T05:11:34.888Z,101306.16
2022-10-23T05:14:01.672Z,101299.28
2022-10-23T05:16:43.609Z,101299.13
2022-10-23T05:19:10.950Z,101290.13
2022-10-23T05:21:37.787Z,101292.44
2022-10-23T05:24:04.916Z,101299.75
2022-10-23T05:26:31.971Z,101292.69
2022-10-23T05:28:58.848Z,101307.31
2022-10-23T05:31:25.927Z,101316.84
2022-10-23T05:33:53.227Z,101311.47
2022-10-23T05:36:20.036Z,101304.72
2022-10-23T05:38:46.948Z,101307.09
2022-10-23T05:41:13.799Z,101309.59
2022-10-23T05:43:40.608Z,101303.69
2022-10-23T05:46:07.467Z,101310.22
2022-10-23T05:48:35.410Z,101312.88
2022-10-23T05:51:09.351Z,101297.81
2022-10-23T05:53:38.804Z,101303.41
2022-10-23T05:56:09.009Z,101299.97
2022-10-23T05:58:35.868Z,101299.41
2022-10-23T06:01:10.382Z,101304.66
2022-10-23T06:03:37.389Z,101318.91
2022-10-23T06:06:04.535Z,101310.03
2022-10-23T06:08:31.789Z,101306.47
2022-10-23T06:10:58.672Z,101306.59
2022-10-23T06:13:25.568Z,101304.38
2022-10-23T06:15:52.375Z,101296.78
2022-10-23T06:18:19.169Z,101303.13
2022-10-23T06:20:45.992Z,101303.94
2022-10-23T06:23:12.875Z,101308.06
2022-10-23T06:25:39.710Z,101301.22
2022-10-23T06:28:06.587Z,101301.03
2022-10-23T06:30:33.494Z,101303.47
2022-10-23T06:33:03.293Z,101299.91
2022-10-23T06:35:33.059Z,101294.09
2022-10-23T06:37:59.927Z,101291.59
2022-10-23T06:40:26.748Z,101296.78
2022-10-23T06:42:55.389Z,101304.34
2022-10-23T06:45:22.226Z,101296.72
2022-10-23T06:47:52.529Z,101294.16
2022-10-23T06:50:19.370Z,101291.22
2022-10-23T06:52:47.643Z,101297.34
2022-10-23T06:55:15.132Z,101300.66
2022-10-23T06:57:42.882Z,101301.50
2022-10-23T07:00:10.689Z,101302.16
2022-10-23T07:02:37.551Z,101309.59
2022-10-23T07:05:04.981Z,101310.25
2022-10-23T07:07:32.851Z,101316.22
2022-10-23T07:09:59.727Z,101310.63
2022-10-23T07:12:26.612Z,101305.88
2022-10-23T07:14:53.430Z,101316.94
2022-10-23T07:17:20.308Z,101319.09
2022-10-23T07:19:47.531Z,101319.59
2022-10-23T07:22:15.943Z,101296.84
2022-10-23T07:24:43.148Z,101302.00
2022-10-23T07:27:10.092Z,101304.34
2022-10-23T07:29:37.169Z,101295.13
2022-10-23T07:32:04.748Z,101301.28
2022-10-23T07:34:32.230Z,101307.28
2022-10-23T07:36:59.068Z,101300.22
2022-10-23T07:39:26.014Z,101308.50
2022-10-23T07:41:52.852Z,101303.69
2022-10-23T07:44:21.989Z,101310.94
2022-10-23T07:46:51.148Z,101301.16
2022-10-23T07:49:17.988Z,101299.94
2022-10-23T07:51:49.018Z,101300.19
2022-10-23T07:54:18.459Z,101296.63
2022-10-23T07:56:45.347Z,101287.44
2022-10-23T07:59:13.204Z,101293.81
2022-10-23T08:01:40.282Z,101294.44
2022-10-23T08:04:07.254Z,101297.28
2022-10-23T08:06:35.444Z,101295.63
2022-10-23T08:09:06.170Z,101301.78
2022-10-23T08:11:35.874Z,101309.31
2022-10-23T08:14:06.770Z,101308.53
2022-10-23T08:16:34.610Z,101311.53
2022-10-23T08:19:01.537Z,101306.72
2022-10-23T08:21:28.489Z,101299.59
2022-10-23T08:23:56.231Z,101301.69
2022-10-23T08:26:24.592Z,101299.34
2022-10-23T08:28:52.311Z,101302.31
2022-10-23T08:31:20.611Z,101305.69
2022-10-23T08:33:50.689Z,101312.13
2022-10-23T08:36:21.446Z,101314.97
2022-10-23T08:38:49.180Z,101318.88
2022-10-23T08:41:24.052Z,101321.81
2022-10-23T08:43:57.776Z,101322.97
2022-10-23T08:46:27.120Z,101330.16
2022-10-23T08:49:16.252Z,101330.28
2022-10-23T08:51:45.315Z,101333.13
2022-10-23T08:54:15.608Z,101324.78
2022-10-23T08:56:43.359Z,101336.47
2022-10-23T08:59:50.177Z,101326.78
2022-10-23T09:02:21.674Z,101327.28
2022-10-23T09:04:49.410Z,101321.50
2022-10-23T09:07:34.834Z,101335.84
2022-10-23T09:10:13.398Z,101333.84
2022-10-23T09:12:40.228Z,101333.50
2022-10-23T09:15:30.507Z,101346.84
2022-10-23T09:18:04.770Z,101346.25
2022-10-23T09:20:35.273Z,101354.06
2022-10-23T09:23:56.892Z,101357.31
2022-10-23T09:26:23.753Z,101362.97
2022-10-23T09:28:52.370Z,101361.81
2022-10-23T09:31:19.467Z,101362.91
2022-10-23T09:33:57.307Z,101343.41
2022-10-23T09:36:29.243Z,101352.06
2022-10-23T09:38:59.978Z,101357.38
2022-10-23T09:41:40.314Z,101364.38
2022-10-23T09:44:26.566Z,101361.41
2022-10-23T09:46:59.887Z,101368.47
2022-10-23T09:49:31.072Z,101369.03
2022-10-23T09:52:13.108Z,101367.03
2022-10-23T09:54:45.874Z,101364.97
2022-10-23T09:57:30.789Z,101359.66
2022-10-23T10:00:04.410Z,101351.81
2022-10-23T10:02:33.468Z,101365.06
2022-10-23T10:05:00.430Z,101364.09
2022-10-23T10:07:31.189Z,101362.06
2022-10-23T10:10:00.349Z,101364.22
2022-10-23T10:12:59.139Z,101375.41
2022-10-23T10:15:53.591Z,101371.31
2022-10-23T10:18:31.249Z,101368.88
2022-10-23T10:21:00.213Z,101368.03
2022-10-23T10:24:14.592Z,101374.97
2022-10-23T10:26:44.204Z,101376.44
2022-10-23T10:29:17.897Z,101368.97
2022-10-23T10:31:58.654Z,101367.81
2022-10-23T10:34:52.633Z,101364.97
2022-10-23T10:37:28.653Z,101372.44
2022-10-23T10:40:01.592Z,101386.81
2022-10-23T10:42:46.452Z,101386.81
2022-10-23T10:45:29.098Z,101391.00
2022-10-23T10:48:16.491Z,101405.81
2022-10-23T10:50:51.126Z,101396.44
2022-10-23T10:53:48.857Z,101392.78
2022-10-23T10:56:16.341Z,101392.13
2022-10-23T10:58:53.763Z,101398.06
2022-10-23T11:01:41.156Z,101395.22
2022-10-23T11:04:34.545Z,101391.75
2022-10-23T11:07:05.823Z,101402.69
2022-10-23T11:09:32.672Z,101398.31
2022-10-23T11:11:59.439Z,101404.69
2022-10-23T11:14:28.230Z,101395.59
2022-10-23T11:17:04.033Z,101392.59
2022-10-23T11:19:34.865Z,101385.78
2022-10-23T11:22:16.761Z,101384.66
2022-10-23T11:25:04.964Z,101388.28
2022-10-23T11:27:35.423Z,101391.66
2022-10-23T11:30:32.700Z,101389.50
2022-10-23T11:33:29.382Z,101389.97
2022-10-23T11:36:18.281Z,101380.78
2022-10-23T11:38:49.574Z,101380.50
2022-10-23T11:41:27.141Z,101381.78
2022-10-23T11:44:01.791Z,101381.72
2022-10-23T11:46:36.346Z,101371.91
2022-10-23T11:49:06.221Z,101368.53
2022-10-23T11:51:39.617Z,101376.00
2022-10-23T11:54:06.354Z,101365.59
2022-10-23T11:56:34.262Z,101362.09
2022-10-23T11:59:29.342Z,101356.22
2022-10-23T12:01:57.148Z,101356.59
2022-10-23T12:04:31.880Z,101350.59
2022-10-23T12:07:02.727Z,101351.09
2022-10-23T12:09:45.519Z,101349.78
2022-10-23T12:12:12.274Z,101348.84
2022-10-23T12:14:40.312Z,101356.28
2022-10-23T12:17:24.998Z,101356.22
2022-10-23T12:19:55.988Z,101357.09
2022-10-23T12:22:25.664Z,101350.13
2022-10-23T12:25:18.030Z,101351.47
2022-10-23T12:27:49.570Z,101350.53
2022-10-23T12:30:21.975Z,101351.78
2022-10-23T12:33:23.751Z,101351.78
2022-10-23T12:36:05.688Z,101346.31
2022-10-23T12:38:35.429Z,101344.66
2022-10-23T12:41:15.132Z,101333.38
2022-10-23T12:43:44.130Z,101328.28
2022-10-23T12:46:32.450Z,101324.28
2022-10-23T12:49:00.219Z,101320.94
2022-10-23T12:51:33.575Z,101327.44
2022-10-23T12:54:00.895Z,101324.16
2022-10-23T12:56:30.514Z,101321.38
2022-10-23T12:59:02.694Z,101326.94
2022-10-23T13:01:40.472Z,101328.13
2022-10-23T13:04:24.712Z,101331.38
2022-10-23T13:06:51.509Z,101332.06
2022-10-23T13:09:39.632Z,101338.56
2022-10-23T13:12:06.990Z,101332.53
2022-10-23T13:14:38.230Z,101334.97
2022-10-23T13:17:09.192Z,101344.63
2022-10-23T13:19:36.211Z,101349.44
2022-10-23T13:22:18.709Z,101348.66
2022-10-23T13:24:45.569Z,101352.00
2022-10-23T13:27:30.909Z,101354.88
2022-10-23T13:29:57.796Z,101357.03
2022-10-23T13:32:26.191Z,101353.56
2022-10-23T13:35:03.931Z,101358.44
2022-10-23T13:37:37.390Z,101360.06
2022-10-23T13:40:07.706Z,101356.53
2022-10-23T13:42:34.538Z,101365.72
2022-10-23T13:45:01.388Z,101372.22
2022-10-23T13:47:28.215Z,101372.69
2022-10-23T13:49:55.091Z,101368.22
2022-10-23T13:52:23.536Z,101369.97
2022-10-23T13:54:50.830Z,101374.56
2022-10-23T13:57:17.732Z,101371.41
2022-10-23T13:59:45.167Z,101370.88
2022-10-23T14:02:19.387Z,101362.03
2022-10-23T14:04:47.342Z,101374.41
2022-10-23T14:07:14.129Z,101382.53
2022-10-23T14:09:40.951Z,101377.91
2022-10-23T14:12:07.750Z,101373.06
2022-10-23T14:14:34.638Z,101368.88
2022-10-23T14:17:01.429Z,101370.56
2022-10-23T14:19:28.353Z,101363.31
2022-10-23T14:21:55.158Z,101357.56
2022-10-23T14:24:21.947Z,101355.06
2022-10-23T14:26:48.772Z,101361.66
2022-10-23T14:29:22.850Z,101363.81
2022-10-23T14:31:51.111Z,101355.47
2022-10-23T14:34:17.933Z,101361.53
2022-10-23T14:36:49.959Z,101356.66
2022-10-23T14:39:18.054Z,101363.88
2022-10-23T14:41:44.891Z,101358.84
2022-10-23T14:44:11.930Z,101358.56
2022-10-23T14:46:38.830Z,101351.19
2022-10-23T14:49:06.012Z,101366.13
2022-10-23T14:51:32.872Z,101352.91
2022-10-23T14:54:03.686Z,101351.81
2022-10-23T14:56:32.008Z,101366.88
2022-10-23T14:59:03.002Z,101370.19
2022-10-23T15:01:34.085Z,101361.28
2022-10-23T15:04:01.093Z,101364.94
2022-10-23T15:06:28.131Z,101363.66
2022-10-23T15:08:55.666Z,101362.47
2022-10-23T15:11:23.270Z,101372.78
2022-10-23T15:13:50.157Z,101380.97
2022-10-23T15:16:17.049Z,101367.44
2022-10-23T15:18:43.874Z,101381.19
2022-10-23T15:21:10.729Z,101380.66
2022-10-23T15:23:39.109Z,101381.94
2022-10-23T15:26:07.929Z,101389.09
2022-10-23T15:28:34.934Z,101387.59
2022-10-23T15:31:01.829Z,101392.16
2022-10-23T15:33:28.750Z,101396.03
2022-10-23T15:35:56.132Z,101396.13
2022-10-23T15:38:23.071Z,101395.41
2022-10-23T15:40:50.086Z,101393.16
2022-10-23T15:43:16.994Z,101384.00
2022-10-23T15:45:43.892Z,101396.09
2022-10-23T15:48:10.791Z,101389.84
2022-10-23T15:50:37.631Z,101391.72
2022-10-23T15:53:41.732Z,101388.34
2022-10-23T15:56:08.570Z,101387.72
2022-10-23T15:58:35.512Z,101384.09
2022-10-23T16:01:06.521Z,101384.75
2022-10-23T16:03:34.579Z,101388.38
2022-10-23T16:06:05.375Z,101396.75
2022-10-23T16:08:32.206Z,101392.41
2022-10-23T16:10:59.860Z,101398.41
2022-10-23T16:13:27.556Z,101395.44
2022-10-23T16:15:54.488Z,101393.81
2022-10-23T16:18:22.109Z,101387.19
2022-10-23T16:20:50.991Z,101397.31
2022-10-23T16:23:17.869Z,101390.06
2022-10-23T16:25:46.495Z,101399.25
2022-10-23T16:28:13.396Z,101397.25
2022-10-23T16:30:43.451Z,101399.75
2022-10-23T16:33:10.350Z,101397.00
2022-10-23T16:35:37.428Z,101393.41
2022-10-23T16:38:04.472Z,101403.66
2022-10-23T16:40:31.371Z,101409.13
2022-10-23T16:42:58.610Z,101405.22
2022-10-23T16:45:25.413Z,101408.56
2022-10-23T16:47:52.268Z,101411.91
2022-10-23T16:50:19.151Z,101398.81
2022-10-23T16:52:46.564Z,101413.06
2022-10-23T16:55:14.551Z,101405.59
2022-10-23T16:57:42.630Z,101409.75
2022-10-23T17:00:10.170Z,101400.59
2022-10-23T17:02:37.657Z,101405.47
2022-10-23T17:05:04.978Z,101407.38
2022-10-23T17:07:32.485Z,101402.88
2022-10-23T17:09:59.372Z,101414.00
2022-10-23T17:12:26.248Z,101413.66
2022-10-23T17:14:53.111Z,101407.13
2022-10-23T17:17:19.988Z,101407.47
2022-10-23T17:19:47.140Z,101410.31
2022-10-23T17:22:16.069Z,101407.22
2022-10-23T17:24:45.124Z,101405.91
2022-10-23T17:27:14.431Z,101411.38
2022-10-23T17:29:41.320Z,101406.38
2022-10-23T17:32:08.149Z,101411.81
2022-10-23T17:34:35.218Z,101411.44
2022-10-23T17:37:02.033Z,101400.75
2022-10-23T17:39:29.399Z,101413.81
2022-10-23T17:41:56.383Z,101413.06
2022-10-23T17:44:23.409Z,101411.75
2022-10-23T17:46:53.653Z,101412.00
2022-10-23T17:49:20.929Z,101409.69
2022-10-23T17:51:52.577Z,101417.66
2022-10-23T17:54:19.473Z,101415.03
2022-10-23T17:56:46.328Z,101416.81
2022-10-23T17:59:14.268Z,101422.03
2022-10-23T18:01:43.777Z,101420.75
2022-10-23T18:04:10.807Z,101423.88
2022-10-23T18:06:41.813Z,101407.16
2022-10-23T18:09:08.631Z,101413.06
2022-10-23T18:11:37.427Z,101401.19
2022-10-23T18:14:04.858Z,101410.91
2022-10-23T18:16:31.811Z,101407.81
2022-10-23T18:19:01.872Z,101399.13
2022-10-23T18:21:28.910Z,101418.31
2022-10-23T18:23:55.870Z,101414.38
2022-10-23T18:26:24.411Z,101411.03
2022-10-23T18:28:52.769Z,101414.59
2022-10-23T18:31:20.049Z,101420.91
2022-10-23T18:33:46.909Z,101417.66
2022-10-23T18:36:21.428Z,101414.38
2022-10-23T18:38:48.754Z,101415.69
2022-10-23T18:41:15.988Z,101406.41
2022-10-23T18:43:44.807Z,101413.28
2022-10-23T18:46:12.931Z,101416.13
2022-10-23T18:48:40.013Z,101410.28
2022-10-23T18:51:15.699Z,101408.78
2022-10-23T18:53:45.871Z,101409.09
2022-10-23T18:56:16.374Z,101399.59
2022-10-23T18:58:43.289Z,101404.34
2022-10-23T19:01:10.305Z,101395.66
2022-10-23T19:03:37.330Z,101391.72
2022-10-23T19:06:06.829Z,101393.59
2022-10-23T19:08:37.291Z,101398.13
2022-10-23T19:11:06.518Z,101393.13
2022-10-23T19:13:38.995Z,101382.78
2022-10-23T19:16:12.110Z,101372.47
2022-10-23T19:18:39.049Z,101375.28
2022-10-23T19:21:06.148Z,101377.91
2022-10-23T19:23:36.478Z,101365.44
2022-10-23T19:26:10.791Z,101367.00
2022-10-23T19:28:42.578Z,101364.59
2022-10-23T19:31:10.003Z,101361.25
2022-10-23T19:33:38.568Z,101357.00
2022-10-23T19:36:07.908Z,101349.50
2022-10-23T19:38:36.956Z,101337.59
2022-10-23T19:41:04.013Z,101339.06
2022-10-23T19:43:30.868Z,101340.81
2022-10-23T19:46:00.409Z,101340.34
2022-10-23T19:48:27.398Z,101339.38
2022-10-23T19:50:54.252Z,101337.84
2022-10-23T19:53:21.100Z,101334.28
2022-10-23T19:55:47.971Z,101342.22
2022-10-23T19:58:14.949Z,101344.81
2022-10-23T20:00:41.810Z,101339.84
2022-10-23T20:03:08.644Z,101340.78
2022-10-23T20:05:35.531Z,101336.72
2022-10-23T20:08:02.490Z,101336.13
2022-10-23T20:10:29.411Z,101336.34
2022-10-23T20:13:08.145Z,101334.78
2022-10-23T20:15:43.532Z,101332.41
2022-10-23T20:18:10.413Z,101343.16
2022-10-23T20:20:41.475Z,101352.97
2022-10-23T20:23:08.368Z,101353.31
2022-10-23T20:25:35.383Z,101350.81
2022-10-23T20:28:02.358Z,101348.44
2022-10-23T20:30:29.230Z,101345.19
2022-10-23T20:32:56.108Z,101341.03
2022-10-23T20:35:22.988Z,101339.38
2022-10-23T20:37:49.812Z,101338.50
2022-10-23T20:40:16.828Z,101343.84
2022-10-23T20:42:43.655Z,101334.38
2022-10-23T20:45:10.894Z,101339.59
2022-10-23T20:47:37.747Z,101341.25
2022-10-23T20:50:04.853Z,101331.78
2022-10-23T20:55:00.194Z,101337.69
2022-10-23T20:57:27.075Z,101335.00
2022-10-23T20:59:54.000Z,101341.88
2022-10-23T21:02:20.905Z,101344.47
2022-10-23T21:04:47.870Z,101340.28
2022-10-23T21:07:14.728Z,101346.03
2022-10-23T21:09:41.573Z,101347.69
2022-10-23T21:12:08.695Z,101342.34
2022-10-23T21:14:35.930Z,101345.09
2022-10-23T21:17:03.074Z,101344.13
2022-10-23T21:19:29.878Z,101337.47
2022-10-23T21:21:56.715Z,101333.72
2022-10-23T21:24:24.706Z,101333.00
2022-10-23T21:26:51.591Z,101330.78
2022-10-23T21:29:19.873Z,101324.00
2022-10-23T21:31:58.231Z,101324.91
2022-10-23T21:34:25.427Z,101335.13
2022-10-23T21:37:12.982Z,101332.50
2022-10-23T21:39:39.088Z,101337.84
2022-10-23T21:42:06.038Z,101339.63
2022-10-23T21:44:33.092Z,101337.00
2022-10-23T21:46:59.991Z,101325.72
2022-10-23T21:49:26.889Z,101322.50
2022-10-23T21:51:55.139Z,101328.84
2022-10-23T21:54:22.260Z,101328.28
2022-10-23T21:56:50.594Z,101328.69
2022-10-23T21:59:19.335Z,101336.78
2022-10-23T22:01:47.120Z,101330.63
2022-10-23T22:04:15.079Z,101333.25
2022-10-23T22:06:42.222Z,101338.56
2022-10-23T22:09:09.243Z,101337.59
2022-10-23T22:11:36.091Z,101335.13
2022-10-23T22:14:02.936Z,101329.78
2022-10-23T22:16:29.790Z,101329.69
2022-10-23T22:18:56.708Z,101328.72
2022-10-23T22:21:25.178Z,101338.81
2022-10-23T22:23:53.978Z,101315.91
2022-10-23T22:26:41.108Z,101329.59
2022-10-23T22:29:10.271Z,101323.47
2022-10-23T22:31:37.191Z,101319.16
2022-10-23T22:34:18.495Z,101323.13
2022-10-23T22:36:52.268Z,101324.53
2022-10-23T22:39:19.269Z,101316.72
2022-10-23T22:41:47.582Z,101305.66
2022-10-23T22:44:17.291Z,101308.50
2022-10-23T22:46:44.612Z,101313.84
2022-10-23T22:49:11.570Z,101317.41
2022-10-23T22:51:39.719Z,101302.19
2022-10-23T22:54:06.633Z,101306.25
2022-10-23T22:56:34.273Z,101303.75
2022-10-23T22:59:01.194Z,101299.59
2022-10-23T23:01:30.699Z,101292.72
2022-10-23T23:04:04.430Z,101297.00
2022-10-23T23:06:45.589Z,101290.94
2022-10-23T23:09:17.000Z,101297.81
2022-10-23T23:11:51.779Z,101300.41
2022-10-23T23:14:23.226Z,101283.22
2022-10-23T23:16:52.073Z,101285.56
2022-10-23T23:19:19.129Z,101287.69
2022-10-23T23:21:45.933Z,101289.34
2022-10-23T23:24:12.788Z,101278.31
2022-10-23T23:26:39.627Z,101284.97
2022-10-23T23:29:06.519Z,101279.34
2022-10-23T23:31:33.373Z,101284.91
2022-10-23T23:34:00.200Z,101287.13
2022-10-23T23:36:27.408Z,101279.75
2022-10-23T23:38:54.570Z,101278.44
2022-10-23T23:41:21.804Z,101276.03
2022-10-23T23:43:48.728Z,101280.75
2022-10-23T23:46:17.893Z,101285.34
2022-10-23T23:48:48.113Z,101284.03
2022-10-23T23:51:19.770Z,101273.28
2022-10-23T23:53:47.093Z,101283.09
2022-10-23T23:56:13.951Z,101287.72
2022-10-23T23:58:40.832Z,101282.81
